Time;durP1;ratioP1;P1;durP2;ratioP2;P2;SDS_P1;SDS_P2;PMS_P1;PMS_P2;Temp;Humidity;BMP_temperature;BMP_pressure;BME280_temperature;BME280_humidity;BME280_pressure;Samples;Min_cycle;Max_cycle;Signal;HPM_P1;HPM_P2
2022/05/25 00:01:32;;;;;;;1.00;1.00;;;13.20;99.90;;;;;;7369707;19;20347;-81
2022/05/25 00:03:59;;;;;;;1.00;1.00;;;13.20;99.90;;;;;;7365803;19;20431;-82
2022/05/25 00:06:27;;;;;;;0.95;0.95;;;13.20;99.90;;;;;;7381810;19;20349;-83
2022/05/25 00:08:53;;;;;;;0.90;0.90;;;13.20;99.90;;;;;;7365571;19;20344;-81
2022/05/25 00:11:19;;;;;;;0.98;0.98;;;13.10;99.90;;;;;;7374926;19;20333;-81
2022/05/25 00:13:46;;;;;;;1.13;1.00;;;13.10;99.90;;;;;;7376202;19;20329;-80
2022/05/25 00:16:12;;;;;;;1.10;1.10;;;13.00;99.90;;;;;;7361929;19;20431;-79
2022/05/25 00:19:58;;;;;;;0.77;0.77;;;13.00;99.90;;;;;;7367551;19;20336;-80
2022/05/25 00:21:25;;;;;;;1.13;1.10;;;13.00;99.90;;;;;;7261788;19;2004422;-82
2022/05/25 00:23:52;;;;;;;1.27;1.17;;;13.00;99.90;;;;;;7373052;19;20443;-81
2022/05/25 00:26:18;;;;;;;0.90;0.90;;;13.00;99.90;;;;;;7361542;19;20374;-81
2022/05/25 00:28:47;;;;;;;1.07;1.07;;;13.00;99.90;;;;;;7370601;19;20297;-86
2022/05/25 00:31:20;;;;;;;1.20;1.20;;;13.00;99.90;;;;;;7295529;19;21317;-86
2022/05/25 00:33:57;;;;;;;0.90;0.90;;;12.90;99.90;;;;;;7292265;19;20359;-84
2022/05/25 00:36:30;;;;;;;0.98;0.98;;;12.80;99.90;;;;;;7316448;19;20381;-83
2022/05/25 00:38:59;;;;;;;1.00;1.00;;;12.80;99.90;;;;;;7339927;19;20353;-81
2022/05/25 00:41:28;;;;;;;1.02;1.00;;;12.80;99.90;;;;;;7366358;19;20364;-87
2022/05/25 00:44:00;;;;;;;1.05;1.05;;;12.70;99.90;;;;;;7349557;19;20339;-83
2022/05/25 00:46:30;;;;;;;0.98;0.98;;;12.70;99.90;;;;;;7320333;19;20348;-83
2022/05/25 00:49:30;;;;;;;1.10;1.10;;;12.70;99.90;;;;;;7354764;19;20344;-85
2022/05/25 00:52:10;;;;;;;0.98;0.93;;;12.60;99.90;;;;;;7265808;19;2004250;-82
2022/05/25 00:54:47;;;;;;;0.90;0.90;;;12.50;99.90;;;;;;7375884;19;20336;-84
2022/05/25 00:57:17;;;;;;;1.10;1.10;;;12.50;99.90;;;;;;7362167;19;20344;-80
2022/05/25 01:00:07;;;;;;;2.50;1.00;;;12.50;99.90;;;;;;7355728;19;20324;-81
2022/05/25 01:03:10;;;;;;;0.90;0.88;;;12.50;99.90;;;;;;7156411;19;2004401;-80
2022/05/25 01:06:23;;;;;;;1.10;1.10;;;12.50;99.90;;;;;;7178619;19;2004785;-80
2022/05/25 01:09:13;;;;;;;1.10;1.10;;;12.50;99.90;;;;;;7248306;19;2004188;-84
2022/05/25 01:11:50;;;;;;;1.45;1.35;;;12.40;99.90;;;;;;7377070;19;20424;-84
2022/05/25 01:14:22;;;;;;;1.00;1.00;;;12.40;99.90;;;;;;7362692;19;20329;-79
2022/05/25 01:17:01;;;;;;;1.20;1.20;;;12.30;99.90;;;;;;7352529;19;20435;-82
2022/05/25 01:19:44;;;;;;;0.90;0.90;;;12.30;99.90;;;;;;7365609;19;20349;-78
2022/05/25 01:22:16;;;;;;;1.05;1.05;;;12.30;99.90;;;;;;7368869;19;20356;-81
2022/05/25 01:24:48;;;;;;;1.07;1.07;;;12.30;99.90;;;;;;7366537;19;20939;-81
2022/05/25 01:27:33;;;;;;;1.00;1.00;;;12.20;99.90;;;;;;7362064;19;20332;-81
2022/05/25 01:30:24;;;;;;;1.10;1.10;;;12.20;99.90;;;;;;7365243;19;20356;-80
2022/05/25 01:33:15;;;;;;;1.50;1.00;;;12.20;99.90;;;;;;7154708;19;2004965;-81
2022/05/25 01:35:49;;;;;;;1.33;1.23;;;12.20;99.90;;;;;;7261902;19;2004259;-82
2022/05/25 01:38:46;;;;;;;1.15;1.15;;;12.10;99.90;;;;;;7375365;19;20332;-83
2022/05/25 01:41:53;;;;;;;1.00;1.00;;;12.10;99.90;;;;;;7276932;19;2004908;-80
2022/05/25 01:44:27;;;;;;;1.40;1.30;;;12.00;99.90;;;;;;7144606;19;2004274;-82
2022/05/25 01:47:03;;;;;;;1.00;1.00;;;12.00;99.90;;;;;;7347291;19;20720;-82
2022/05/25 01:49:53;;;;;;;0.90;0.90;;;12.00;99.90;;;;;;7257906;19;2004332;-82
2022/05/25 01:52:25;;;;;;;1.30;1.20;;;11.90;99.90;;;;;;7264418;19;2004389;-81
2022/05/25 01:54:57;;;;;;;0.93;0.93;;;11.90;99.90;;;;;;7356981;19;20361;-84
2022/05/25 01:57:32;;;;;;;1.20;1.20;;;12.00;99.90;;;;;;7350674;19;20765;-82
2022/05/25 02:00:30;;;;;;;1.60;1.50;;;11.90;99.90;;;;;;7214532;19;2004211;-84
2022/05/25 02:06:22;;;;;;;1.40;1.30;;;11.90;99.90;;;;;;7363857;19;20346;-84
2022/05/25 02:09:10;;;;;;;1.13;1.03;;;11.80;99.90;;;;;;7263953;19;2004473;-83
2022/05/25 02:11:41;;;;;;;1.33;1.30;;;11.80;99.90;;;;;;7366998;19;20344;-82
2022/05/25 02:14:38;;;;;;;1.20;1.20;;;11.70;99.90;;;;;;7355905;19;20363;-80
2022/05/25 02:17:25;;;;;;;2.10;2.00;;;11.60;99.90;;;;;;7257440;19;2004418;-80
2022/05/25 02:20:13;;;;;;;1.77;1.67;;;11.60;99.90;;;;;;7360348;19;20337;-82
2022/05/25 02:22:50;;;;;;;1.60;1.40;;;11.60;99.90;;;;;;7370311;19;20413;-82
2022/05/25 02:25:34;;;;;;;1.45;1.35;;;11.50;99.90;;;;;;7363693;19;20328;-80
2022/05/25 02:28:09;;;;;;;1.20;1.02;;;11.40;99.90;;;;;;7263887;19;2005039;-82
2022/05/25 02:30:37;;;;;;;1.20;1.10;;;11.40;99.90;;;;;;7267325;19;2004153;-81
2022/05/25 02:33:09;;;;;;;1.23;1.13;;;11.40;99.90;;;;;;7366389;19;20360;-81
2022/05/25 02:35:35;;;;;;;1.42;1.33;;;11.40;99.90;;;;;;7367645;19;20332;-82
2022/05/25 02:38:03;;;;;;;1.30;1.20;;;11.40;99.90;;;;;;7373944;19;20328;-80
2022/05/25 02:40:29;;;;;;;1.40;1.30;;;11.30;99.90;;;;;;7383874;19;20340;-79
2022/05/25 02:42:55;;;;;;;1.20;1.10;;;11.30;99.90;;;;;;7362392;19;20413;-79
2022/05/25 02:45:22;;;;;;;2.25;1.65;;;11.20;99.90;;;;;;7363233;19;20362;-79
2022/05/25 02:47:49;;;;;;;1.10;1.00;;;11.20;99.90;;;;;;7366359;19;20693;-80
2022/05/25 02:50:15;;;;;;;1.30;1.20;;;11.20;99.90;;;;;;7360367;19;20509;-78
2022/05/25 02:52:41;;;;;;;1.30;1.20;;;11.20;99.90;;;;;;7367899;19;20915;-79
2022/05/25 02:55:08;;;;;;;1.27;1.20;;;11.30;99.90;;;;;;7369548;19;20359;-79
2022/05/25 02:57:35;;;;;;;1.30;1.25;;;11.30;99.90;;;;;;7357099;19;20353;-79
2022/05/25 03:00:02;;;;;;;1.80;1.70;;;11.30;99.90;;;;;;7363923;19;20328;-78
2022/05/25 03:02:29;;;;;;;1.30;1.20;;;11.30;99.90;;;;;;7353770;19;20423;-78
2022/05/25 03:04:55;;;;;;;2.40;1.40;;;11.30;99.90;;;;;;7366506;19;20694;-78
2022/05/25 03:07:21;;;;;;;1.17;1.10;;;11.20;99.90;;;;;;7366291;19;20328;-79
2022/05/25 03:09:48;;;;;;;1.00;1.00;;;11.30;99.90;;;;;;7379109;19;20353;-81
2022/05/25 03:12:14;;;;;;;1.27;1.27;;;11.30;99.90;;;;;;7379652;19;20795;-79
2022/05/25 03:14:41;;;;;;;1.40;1.30;;;11.30;99.90;;;;;;7375959;19;20375;-79
2022/05/25 03:17:10;;;;;;;1.60;1.50;;;11.30;99.90;;;;;;7370950;19;20337;-79
2022/05/25 03:19:39;;;;;;;1.25;1.25;;;11.40;99.90;;;;;;7380440;19;20891;-81
2022/05/25 03:22:05;;;;;;;1.42;1.33;;;11.40;99.90;;;;;;7379328;19;20317;-80
2022/05/25 03:24:32;;;;;;;1.50;1.40;;;11.30;99.90;;;;;;7373590;19;20327;-78
2022/05/25 03:26:58;;;;;;;1.42;1.33;;;11.30;99.90;;;;;;7363758;19;20353;-80
2022/05/25 03:29:26;;;;;;;2.30;1.20;;;11.30;99.90;;;;;;7368503;19;20392;-79
2022/05/25 03:31:53;;;;;;;1.00;1.00;;;11.30;99.90;;;;;;7362300;19;20372;-79
2022/05/25 03:34:19;;;;;;;1.60;1.50;;;11.30;99.90;;;;;;7362743;19;20336;-80
2022/05/25 03:36:46;;;;;;;1.10;1.10;;;11.40;99.90;;;;;;7371568;19;20301;-81
2022/05/25 03:39:13;;;;;;;1.67;1.58;;;11.40;99.90;;;;;;7364218;19;20361;-82
2022/05/25 03:41:40;;;;;;;1.70;1.60;;;11.50;99.90;;;;;;7365727;19;20341;-84
2022/05/25 03:44:07;;;;;;;1.33;1.23;;;11.60;99.90;;;;;;7351836;19;20843;-80
2022/05/25 03:46:33;;;;;;;1.20;1.20;;;11.60;99.90;;;;;;7370914;19;20353;-83
2022/05/25 03:49:00;;;;;;;1.50;1.40;;;11.60;99.90;;;;;;7366755;19;20386;-81
2022/05/25 03:51:26;;;;;;;1.10;1.10;;;11.70;99.90;;;;;;7361135;19;20333;-82
2022/05/25 03:53:52;;;;;;;1.30;1.20;;;11.70;99.90;;;;;;7375525;19;20345;-82
2022/05/25 03:56:21;;;;;;;1.33;1.23;;;11.80;99.90;;;;;;7343288;19;20344;-79
2022/05/25 03:58:48;;;;;;;1.77;1.67;;;11.90;99.90;;;;;;7362982;19;20320;-83
2022/05/25 04:01:14;;;;;;;1.50;1.40;;;11.90;99.90;;;;;;7360802;19;20336;-79
2022/05/25 04:03:41;;;;;;;1.60;1.50;;;12.00;99.90;;;;;;7369182;19;20312;-80
2022/05/25 04:06:07;;;;;;;1.38;1.30;;;12.00;99.90;;;;;;7374252;19;20423;-80
2022/05/25 04:08:34;;;;;;;1.40;1.30;;;12.00;99.90;;;;;;7378209;19;20312;-83
2022/05/25 04:11:00;;;;;;;1.60;1.50;;;11.90;99.90;;;;;;7372637;19;20361;-80
2022/05/25 04:13:27;;;;;;;1.70;1.60;;;11.90;99.90;;;;;;7363386;19;20329;-79
2022/05/25 04:15:53;;;;;;;1.50;1.40;;;11.80;99.90;;;;;;7358139;19;20355;-82
2022/05/25 04:18:19;;;;;;;1.65;1.55;;;11.90;99.90;;;;;;7368918;19;20455;-82
2022/05/25 04:20:46;;;;;;;1.80;1.70;;;11.90;99.90;;;;;;7364369;19;20308;-81
2022/05/25 04:23:13;;;;;;;1.90;1.80;;;11.80;99.90;;;;;;7366995;19;20364;-81
2022/05/25 04:25:40;;;;;;;1.92;1.80;;;11.80;99.90;;;;;;7362295;19;20349;-79
2022/05/25 04:28:07;;;;;;;2.03;1.90;;;11.70;99.90;;;;;;7358563;19;20344;-81
2022/05/25 04:30:35;;;;;;;1.88;1.77;;;11.60;99.90;;;;;;7362469;19;20885;-79
2022/05/25 04:33:03;;;;;;;1.70;1.60;;;11.60;99.90;;;;;;7348050;19;20304;-79
2022/05/25 04:35:36;;;;;;;1.75;1.65;;;11.70;99.90;;;;;;7352598;19;20289;-80
2022/05/25 04:38:15;;;;;;;1.50;1.40;;;11.80;99.90;;;;;;7375197;19;20340;-79
2022/05/25 04:40:43;;;;;;;2.40;1.50;;;11.90;99.90;;;;;;7366568;19;20390;-80
2022/05/25 04:43:15;;;;;;;1.90;1.80;;;12.20;99.90;;;;;;7369540;19;20420;-80
2022/05/25 04:45:43;;;;;;;1.50;1.40;;;12.10;99.90;;;;;;7340834;19;20336;-79
2022/05/25 04:48:13;;;;;;;1.10;1.10;;;12.20;99.90;;;;;;7351063;19;20420;-81
2022/05/25 04:50:41;;;;;;;1.70;1.60;;;12.20;99.90;;;;;;7355499;19;20348;-79
2022/05/25 04:53:10;;;;;;;1.70;1.60;;;12.30;99.90;;;;;;7353199;19;20348;-79
2022/05/25 04:58:39;;;;;;;1.95;1.75;;;12.40;99.90;;;;;;7349134;19;20374;-79
2022/05/25 05:01:19;;;;;;;1.67;1.58;;;12.60;99.90;;;;;;7349184;19;21323;-83
2022/05/25 05:03:51;;;;;;;1.48;1.38;;;12.60;99.90;;;;;;7348224;19;20340;-79
2022/05/25 05:06:44;;;;;;;1.50;1.40;;;12.80;99.90;;;;;;7330082;19;20938;-81
2022/05/25 05:09:27;;;;;;;1.60;1.50;;;13.00;99.90;;;;;;7170331;19;2004362;-83
2022/05/25 05:12:01;;;;;;;1.80;1.70;;;13.10;99.90;;;;;;7375617;19;20424;-79
2022/05/25 05:14:27;;;;;;;1.88;1.77;;;13.20;99.90;;;;;;7378744;19;20399;-80
2022/05/25 05:17:01;;;;;;;1.60;1.50;;;13.40;99.90;;;;;;7378225;19;20704;-82
2022/05/25 05:19:38;;;;;;;1.50;1.40;;;13.50;99.90;;;;;;7278018;19;2004255;-83
2022/05/25 05:22:12;;;;;;;1.90;1.50;;;13.80;99.90;;;;;;7380658;19;20844;-81
2022/05/25 05:24:37;;;;;;;2.37;1.50;;;14.00;99.90;;;;;;7383957;19;20340;-79
2022/05/25 05:27:06;;;;;;;2.17;1.60;;;14.10;99.90;;;;;;7385517;19;20349;-81
2022/05/25 05:29:32;;;;;;;1.40;1.30;;;14.10;99.90;;;;;;7398720;19;20337;-83
2022/05/25 05:31:58;;;;;;;2.00;1.60;;;14.20;99.90;;;;;;7384230;19;20352;-81
2022/05/25 05:34:27;;;;;;;2.10;2.00;;;14.20;99.90;;;;;;7385869;19;20368;-83
2022/05/25 05:36:57;;;;;;;2.00;1.90;;;14.30;99.90;;;;;;7390655;19;20336;-83
2022/05/25 05:39:23;;;;;;;1.70;1.60;;;14.30;99.90;;;;;;7384388;19;20344;-79
2022/05/25 05:41:59;;;;;;;1.80;1.70;;;14.30;99.90;;;;;;7383259;19;20404;-83
2022/05/25 05:44:27;;;;;;;1.60;1.50;;;14.50;99.90;;;;;;7386512;19;20321;-83
2022/05/25 05:46:53;;;;;;;1.75;1.65;;;14.60;99.90;;;;;;7384383;19;20309;-80
2022/05/25 05:49:19;;;;;;;3.63;1.60;;;14.70;99.90;;;;;;7379867;19;20900;-81
2022/05/25 05:51:44;;;;;;;1.90;1.80;;;14.80;99.90;;;;;;7407176;19;20354;-88
2022/05/25 05:54:11;;;;;;;1.80;1.70;;;15.00;99.90;;;;;;7415411;19;20328;-88
2022/05/25 05:56:36;;;;;;;1.83;1.70;;;15.10;99.90;;;;;;7414235;19;20392;-86
2022/05/25 05:59:02;;;;;;;1.80;1.67;;;15.10;99.90;;;;;;7418706;19;20328;-90
2022/05/25 06:01:28;;;;;;;2.43;1.60;;;15.20;99.90;;;;;;7417549;19;20348;-87
2022/05/25 06:03:53;;;;;;;2.00;1.90;;;15.30;99.90;;;;;;7421669;19;20367;-87
2022/05/25 06:06:19;;;;;;;1.93;1.83;;;15.20;99.90;;;;;;7422847;19;21098;-86
2022/05/25 06:08:46;;;;;;;1.70;1.60;;;14.90;99.90;;;;;;7423186;19;20362;-89
2022/05/25 06:11:15;;;;;;;1.70;1.60;;;15.10;99.90;;;;;;7419030;19;20325;-90
2022/05/25 06:13:41;;;;;;;1.67;1.57;;;15.30;99.90;;;;;;7423225;19;20308;-88
2022/05/25 06:21:35;;;;;;;2.53;2.10;;;15.80;99.90;;;;;;7319694;19;2004281;-89
2022/05/25 06:24:01;;;;;;;2.47;2.00;;;16.00;99.90;;;;;;7421648;19;20362;-88
2022/05/25 06:26:30;;;;;;;2.20;2.00;;;16.10;99.90;;;;;;7422148;19;20350;-88
2022/05/25 06:28:57;;;;;;;1.73;1.63;;;16.10;99.90;;;;;;7420540;19;20401;-84
2022/05/25 06:31:22;;;;;;;2.20;2.10;;;16.20;99.90;;;;;;7421851;19;20376;-88
2022/05/25 06:33:48;;;;;;;2.33;2.20;;;16.20;99.90;;;;;;7418790;19;20329;-84
2022/05/25 06:36:21;;;;;;;2.50;2.30;;;16.30;99.90;;;;;;7411500;19;20317;-88
2022/05/25 06:38:47;;;;;;;2.05;1.88;;;16.60;99.90;;;;;;7417987;19;20368;-86
2022/05/25 06:41:13;;;;;;;2.93;2.27;;;16.80;99.90;;;;;;7410887;19;20329;-90
2022/05/25 06:43:38;;;;;;;2.90;2.00;;;17.10;99.90;;;;;;7410736;19;20361;-86
2022/05/25 06:46:05;;;;;;;2.13;1.92;;;16.80;99.90;;;;;;7415218;19;20377;-88
2022/05/25 06:48:30;;;;;;;2.10;1.90;;;16.90;99.90;;;;;;7419841;19;20339;-89
2022/05/25 06:50:56;;;;;;;2.13;2.03;;;17.10;99.90;;;;;;7417903;19;20399;-89
2022/05/25 06:53:21;;;;;;;2.03;1.85;;;17.30;99.90;;;;;;7416230;19;20432;-87
2022/05/25 06:55:48;;;;;;;2.60;2.17;;;17.60;99.90;;;;;;7414075;19;20316;-87
2022/05/25 06:58:14;;;;;;;2.38;2.15;;;17.80;99.90;;;;;;7377328;19;20337;-85
2022/05/25 07:00:40;;;;;;;2.35;2.15;;;17.80;99.90;;;;;;7369042;19;20430;-83
2022/05/25 07:03:09;;;;;;;2.78;2.58;;;18.00;99.90;;;;;;7380212;19;20337;-87
2022/05/25 07:05:35;;;;;;;2.25;2.13;;;18.00;99.90;;;;;;7376661;19;20316;-81
2022/05/25 07:08:01;;;;;;;2.17;2.00;;;17.90;99.90;;;;;;7381648;19;20400;-81
2022/05/25 07:10:26;;;;;;;2.10;1.90;;;17.80;99.90;;;;;;7388188;19;20658;-88
2022/05/25 07:12:52;;;;;;;2.13;2.00;;;18.00;99.90;;;;;;7378626;19;20366;-82
2022/05/25 07:15:18;;;;;;;1.90;1.80;;;18.00;99.90;;;;;;7373046;19;20433;-86
2022/05/25 07:17:44;;;;;;;4.20;2.10;;;18.20;99.90;;;;;;7374470;19;20402;-87
2022/05/25 07:20:10;;;;;;;2.33;2.03;;;18.30;99.90;;;;;;7378133;19;21014;-84
2022/05/25 07:22:38;;;;;;;2.35;2.15;;;18.40;99.90;;;;;;7372960;19;20866;-86
2022/05/25 07:25:04;;;;;;;1.95;1.80;;;18.60;99.90;;;;;;7377503;19;20316;-82
2022/05/25 07:27:30;;;;;;;2.47;2.28;;;18.70;99.90;;;;;;7374031;19;21055;-82
2022/05/25 07:29:56;;;;;;;2.03;1.93;;;18.70;99.90;;;;;;7376911;19;20357;-83
2022/05/25 07:32:22;;;;;;;2.38;2.17;;;18.70;99.90;;;;;;7372164;19;20673;-88
2022/05/25 07:35:09;;;;;;;1.88;1.77;;;18.80;99.90;;;;;;7376343;19;20345;-87
2022/05/25 07:37:38;;;;;;;2.30;2.10;;;18.90;99.90;;;;;;7384044;19;20416;-85
2022/05/25 07:40:07;;;;;;;2.40;2.20;;;18.80;99.90;;;;;;7379410;19;20336;-86
2022/05/25 07:42:33;;;;;;;2.50;2.22;;;18.70;99.90;;;;;;7366882;19;20349;-82
2022/05/25 07:45:00;;;;;;;2.10;2.00;;;18.30;99.90;;;;;;7371866;19;21194;-81
2022/05/25 07:47:28;;;;;;;2.10;1.90;;;18.30;99.90;;;;;;7367128;19;20365;-89
2022/05/25 07:49:54;;;;;;;2.20;2.05;;;18.50;99.90;;;;;;7371542;19;20329;-82
2022/05/25 07:52:20;;;;;;;2.20;2.00;;;18.60;99.90;;;;;;7371643;19;20328;-84
2022/05/25 07:54:47;;;;;;;2.33;1.80;;;18.90;99.90;;;;;;7372604;19;20418;-83
2022/05/25 07:57:13;;;;;;;2.58;2.10;;;19.10;99.90;;;;;;7373133;19;20343;-89
2022/05/25 07:59:39;;;;;;;2.13;1.92;;;19.30;99.90;;;;;;7375749;19;21130;-88
2022/05/25 08:07:45;;;;;;;2.45;2.20;;;19.80;99.90;;;;;;7277856;19;2004520;-84
2022/05/25 08:10:14;;;;;;;2.77;2.10;;;19.80;99.90;;;;;;7371877;19;21014;-82
2022/05/25 08:12:40;;;;;;;2.95;1.90;;;19.90;99.90;;;;;;7366974;19;20360;-84
2022/05/25 08:15:07;;;;;;;2.13;2.00;;;20.10;99.90;;;;;;7373410;19;20471;-80
2022/05/25 08:17:34;;;;;;;2.13;1.92;;;20.10;99.90;;;;;;7373119;19;20300;-80
2022/05/25 08:20:00;;;;;;;3.70;2.20;;;20.20;99.90;;;;;;7375185;19;20995;-82
2022/05/25 08:22:26;;;;;;;2.50;2.07;;;20.10;99.90;;;;;;7371323;19;21260;-89
2022/05/25 08:24:52;;;;;;;2.03;1.90;;;20.00;99.90;;;;;;7373033;19;20333;-84
2022/05/25 08:27:18;;;;;;;2.30;2.20;;;20.10;99.90;;;;;;7379803;19;20344;-81
2022/05/25 08:29:44;;;;;;;2.00;1.90;;;20.10;99.90;;;;;;7374876;19;20341;-82
2022/05/25 08:32:10;;;;;;;2.58;2.20;;;20.00;99.90;;;;;;7360421;19;20333;-81
2022/05/25 08:34:36;;;;;;;2.47;2.28;;;19.90;99.90;;;;;;7376175;19;22339;-81
2022/05/25 08:37:02;;;;;;;3.67;2.20;;;20.00;99.90;;;;;;7375015;19;20361;-83
2022/05/25 08:39:28;;;;;;;2.60;2.40;;;20.00;99.90;;;;;;7370272;19;20367;-80
2022/05/25 08:41:55;;;;;;;2.08;1.90;;;20.00;99.90;;;;;;7367156;19;20344;-81
2022/05/25 08:44:23;;;;;;;2.40;2.20;;;20.10;99.90;;;;;;7371137;19;20309;-81
2022/05/25 08:46:54;;;;;;;2.30;2.10;;;19.80;99.90;;;;;;7372896;19;20329;-82
2022/05/25 08:49:19;;;;;;;2.08;1.98;;;19.80;99.90;;;;;;7371485;19;20694;-81
2022/05/25 08:51:47;;;;;;;2.27;2.10;;;19.80;99.90;;;;;;7369529;19;20315;-85
2022/05/25 08:54:13;;;;;;;1.80;1.70;;;19.60;99.90;;;;;;7372941;19;20635;-87
2022/05/25 08:56:50;;;;;;;2.60;2.20;;;19.90;99.90;;;;;;7373108;19;20914;-87
2022/05/25 08:59:19;;;;;;;3.08;2.17;;;20.00;99.90;;;;;;7376832;19;20347;-88
2022/05/25 09:02:03;;;;;;;2.10;2.00;;;19.90;99.90;;;;;;7371278;19;20304;-87
2022/05/25 09:04:44;;;;;;;3.13;2.20;;;19.80;99.90;;;;;;7268125;19;2004387;-88
2022/05/25 09:07:39;;;;;;;2.10;2.00;;;19.60;99.90;;;;;;7379944;19;20321;-81
2022/05/25 09:10:06;;;;;;;2.40;1.80;;;19.60;99.90;;;;;;7377127;19;21050;-82
2022/05/25 09:13:02;;;;;;;2.40;2.20;;;19.80;99.90;;;;;;7371298;19;20380;-82
2022/05/25 09:15:29;;;;;;;2.00;1.90;;;19.90;99.90;;;;;;7269463;19;2004535;-88
2022/05/25 09:18:05;;;;;;;2.38;1.95;;;20.10;99.90;;;;;;7374015;19;20973;-81
2022/05/25 09:20:43;;;;;;;2.40;2.20;;;20.10;99.90;;;;;;7363467;19;20344;-83
2022/05/25 09:23:10;;;;;;;2.20;2.10;;;20.00;99.90;;;;;;7371239;19;20333;-83
2022/05/25 09:25:36;;;;;;;2.50;2.30;;;19.90;99.90;;;;;;7372579;19;20348;-85
2022/05/25 09:28:07;;;;;;;2.10;2.00;;;19.80;99.90;;;;;;7371262;19;20393;-84
2022/05/25 09:30:36;;;;;;;2.35;2.15;;;20.00;99.90;;;;;;7265684;19;2004668;-86
2022/05/25 09:33:07;;;;;;;2.60;2.40;;;20.10;99.90;;;;;;7368501;19;20794;-84
2022/05/25 09:35:45;;;;;;;2.22;2.13;;;20.10;99.90;;;;;;7370040;19;20337;-87
2022/05/25 09:38:16;;;;;;;2.60;2.40;;;20.20;99.90;;;;;;7372529;19;20360;-85
2022/05/25 09:40:46;;;;;;;2.88;2.50;;;20.20;99.90;;;;;;7369529;19;20699;-86
2022/05/25 09:43:14;;;;;;;2.43;2.23;;;20.20;99.90;;;;;;7369903;19;20333;-85
2022/05/25 09:45:42;;;;;;;2.38;2.17;;;20.20;99.90;;;;;;7370031;19;20347;-87
2022/05/25 09:48:29;;;;;;;2.90;2.30;;;20.20;99.90;;;;;;7365914;19;20878;-83
2022/05/25 09:51:22;;;;;;;2.57;2.23;;;20.20;99.90;;;;;;7362649;19;20356;-83
2022/05/25 09:53:53;;;;;;;2.10;2.00;;;20.00;99.90;;;;;;7270290;19;2004406;-80
2022/05/25 09:56:30;;;;;;;2.33;2.20;;;20.10;99.90;;;;;;7264859;19;2004285;-82
2022/05/25 09:58:58;;;;;;;2.40;2.30;;;20.20;99.90;;;;;;7272476;19;2004343;-81
2022/05/25 10:01:32;;;;;;;3.47;2.70;;;20.20;99.90;;;;;;7371326;19;20344;-80
2022/05/25 10:03:59;;;;;;;3.25;2.72;;;19.50;99.90;;;;;;7371719;19;20355;-85
2022/05/25 10:06:34;;;;;;;3.58;2.30;;;19.30;99.90;;;;;;7366471;19;20312;-86
2022/05/25 10:09:41;;;;;;;2.55;2.35;;;19.60;99.90;;;;;;7262818;19;2004692;-86
2022/05/25 10:12:35;;;;;;;2.75;2.55;;;19.60;99.90;;;;;;7171006;19;2004536;-89
2022/05/25 10:15:14;;;;;;;2.50;2.30;;;19.70;99.90;;;;;;7256591;19;2004373;-82
2022/05/25 10:17:43;;;;;;;3.30;2.90;;;19.80;99.90;;;;;;7372890;19;20426;-86
2022/05/25 10:20:29;;;;;;;2.95;2.60;;;19.20;99.90;;;;;;7359951;19;20931;-83
2022/05/25 10:23:25;;;;;;;3.03;2.70;;;19.70;99.90;;;;;;7375746;19;20332;-89
2022/05/25 10:26:22;;;;;;;3.05;2.75;;;19.90;99.90;;;;;;7264221;19;2004700;-83
2022/05/25 10:28:54;;;;;;;4.57;3.00;;;19.60;99.90;;;;;;7374519;19;20329;-89
2022/05/25 10:37:11;;;;;;;3.22;2.92;;;19.90;99.90;;;;;;7350168;19;20325;-87
2022/05/25 10:39:42;;;;;;;3.17;2.88;;;20.10;99.90;;;;;;7324381;19;20352;-91
2022/05/25 10:42:21;;;;;;;3.85;2.75;;;20.40;99.90;;;;;;7359249;19;20919;-90
2022/05/25 10:44:53;;;;;;;2.60;2.40;;;20.60;99.90;;;;;;7369927;19;20336;-91
2022/05/25 10:47:44;;;;;;;2.90;2.50;;;20.30;99.90;;;;;;7378168;19;20321;-87
2022/05/25 10:50:49;;;;;;;2.55;2.35;;;20.20;99.90;;;;;;7264536;19;2004293;-88
2022/05/25 10:54:44;;;;;;;2.10;2.00;;;20.70;99.90;;;;;;7254855;19;2004362;-87
2022/05/25 10:56:51;;;;;;;2.13;1.92;;;21.00;99.90;;;;;;7199048;19;2004680;-85
2022/05/25 10:59:40;;;;;;;2.30;2.10;;;21.40;99.90;;;;;;7370451;19;20838;-86
2022/05/25 11:02:53;;;;;;;2.20;2.10;;;20.40;99.90;;;;;;7236918;19;2004574;-84
2022/05/25 11:05:57;;;;;;;2.33;2.13;;;21.00;99.90;;;;;;7255551;19;2004155;-92
2022/05/25 11:08:42;;;;;;;2.88;2.00;;;21.60;99.90;;;;;;7189648;19;2004368;-86
2022/05/25 11:11:26;;;;;;;2.40;2.20;;;22.00;99.90;;;;;;7240923;19;2004091;-85
2022/05/25 11:14:20;;;;;;;2.17;2.03;;;21.80;99.90;;;;;;7392630;19;20886;-88
2022/05/25 11:17:30;;;;;;;1.83;1.73;;;22.50;99.90;;;;;;7207483;19;2004445;-87
2022/05/25 11:20:22;;;;;;;1.85;1.67;;;23.20;99.90;;;;;;7376455;19;20317;-87
2022/05/25 11:23:47;;;;;;;5.05;1.88;;;23.30;99.90;;;;;;7372561;19;20340;-90
2022/05/25 11:27:11;;;;;;;2.80;1.57;;;24.00;99.90;;;;;;7174128;19;2004700;-85
2022/05/25 11:30:39;;;;;;;1.60;1.50;;;24.30;99.90;;;;;;7141156;19;2004425;-91
2022/05/25 11:33:56;;;;;;;1.77;1.67;;;24.80;99.90;;;;;;7262290;19;2004514;-91
2022/05/25 11:44:35;;;;;;;1.52;1.42;;;25.90;97.10;;;;;;7417435;19;20370;-84
2022/05/25 12:02:45;;;;;;;1.50;1.30;;;24.80;92.90;;;;;;7405846;19;20360;-91
2022/05/25 12:29:54;;;;;;;1.30;1.20;;;27.50;86.60;;;;;;7408660;19;20328;-83
2022/05/25 12:32:20;;;;;;;2.33;1.20;;;27.40;80.10;;;;;;7394836;19;20332;-80
2022/05/25 12:34:52;;;;;;;1.30;1.20;;;28.10;79.50;;;;;;7380001;19;20325;-79
2022/05/25 12:37:31;;;;;;;1.38;1.20;;;27.90;77.00;;;;;;7380952;19;20344;-81
2022/05/25 12:40:05;;;;;;;2.92;2.60;;;27.70;83.60;;;;;;7380572;19;20873;-80
2022/05/25 12:42:31;;;;;;;1.13;1.00;;;27.80;78.50;;;;;;7380424;19;20317;-79
2022/05/25 12:50:51;;;;;;;1.92;1.20;;;26.60;74.80;;;;;;7276540;19;2004391;-87
2022/05/25 12:53:40;;;;;;;1.15;1.13;;;26.40;77.40;;;;;;7380539;19;21230;-82
2022/05/25 12:56:15;;;;;;;1.17;1.07;;;26.60;78.40;;;;;;7273271;19;2019251;-84
2022/05/25 12:58:53;;;;;;;0.98;0.98;;;25.50;74.10;;;;;;7379666;19;20448;-80
2022/05/25 13:01:27;;;;;;;1.65;1.00;;;24.80;81.00;;;;;;7375099;19;20456;-84
2022/05/25 13:03:58;;;;;;;1.20;1.10;;;24.80;80.20;;;;;;7376264;19;20342;-81
2022/05/25 13:06:37;;;;;;;1.08;1.00;;;24.60;79.10;;;;;;7344180;19;20317;-81
2022/05/25 13:09:09;;;;;;;1.00;1.00;;;25.20;77.80;;;;;;7279802;19;2004600;-83
2022/05/25 13:11:47;;;;;;;1.25;1.13;;;26.20;80.20;;;;;;7374979;19;20692;-82
2022/05/25 13:14:16;;;;;;;0.90;0.90;;;27.10;77.70;;;;;;7283692;19;2004800;-81
2022/05/25 13:16:48;;;;;;;1.90;1.00;;;27.70;76.60;;;;;;7390109;19;20913;-81
2022/05/25 13:19:28;;;;;;;1.17;1.00;;;27.90;74.40;;;;;;7389440;19;20403;-81
2022/05/25 13:22:02;;;;;;;1.20;1.10;;;28.20;73.10;;;;;;7389395;19;20340;-81
2022/05/25 13:24:58;;;;;;;1.00;1.00;;;26.50;71.60;;;;;;7385738;19;20317;-86
2022/05/25 13:28:01;;;;;;;1.55;1.15;;;26.30;74.20;;;;;;7280796;19;2004404;-87
2022/05/25 13:30:39;;;;;;;1.20;1.10;;;26.20;73.50;;;;;;7279740;19;2004346;-85
2022/05/25 13:33:19;;;;;;;1.13;0.88;;;26.50;73.20;;;;;;7387326;19;20676;-82
2022/05/25 13:35:54;;;;;;;1.80;1.10;;;27.60;74.90;;;;;;7391028;19;20350;-81
2022/05/25 13:38:41;;;;;;;1.17;1.08;;;28.30;72.60;;;;;;7392625;19;20315;-79
2022/05/25 13:41:13;;;;;;;1.27;1.17;;;29.10;70.60;;;;;;7228161;19;2004640;-82
2022/05/25 13:43:58;;;;;;;1.08;1.00;;;27.60;63.80;;;;;;7393891;19;20340;-81
2022/05/25 13:46:39;;;;;;;2.13;1.00;;;27.30;69.80;;;;;;7286029;19;2004243;-83
2022/05/25 13:49:05;;;;;;;0.90;0.90;;;27.90;70.70;;;;;;7392891;19;20344;-82
2022/05/25 13:51:31;;;;;;;1.20;1.10;;;27.70;70.60;;;;;;7394704;19;20305;-85
2022/05/25 13:53:57;;;;;;;1.00;1.00;;;27.60;68.10;;;;;;7389640;19;20777;-81
2022/05/25 13:56:27;;;;;;;1.35;1.00;;;27.00;66.90;;;;;;7379042;19;20434;-83
2022/05/25 13:59:06;;;;;;;1.10;1.00;;;26.20;65.70;;;;;;7381257;19;20680;-84
2022/05/25 14:01:31;;;;;;;1.15;0.93;;;26.10;68.50;;;;;;7273677;19;2005101;-83
2022/05/25 14:04:00;;;;;;;2.10;1.02;;;25.60;71.40;;;;;;7378160;19;20357;-80
2022/05/25 14:06:26;;;;;;;1.20;1.10;;;25.20;70.10;;;;;;7380741;19;20320;-84
2022/05/25 14:11:49;;;;;;;1.00;0.90;;;24.50;74.60;;;;;;7272569;19;2004546;-82
2022/05/25 14:14:26;;;;;;;0.90;0.90;;;24.90;77.20;;;;;;7380611;19;20365;-84
2022/05/25 14:17:03;;;;;;;0.80;0.80;;;25.00;70.70;;;;;;7386409;19;20425;-86
2022/05/25 14:19:33;;;;;;;2.30;1.15;;;24.90;71.10;;;;;;7392228;19;20319;-81
2022/05/25 14:22:06;;;;;;;2.60;1.20;;;24.50;70.90;;;;;;7382079;19;20351;-82
2022/05/25 14:24:38;;;;;;;1.05;1.00;;;24.50;72.70;;;;;;7390448;19;20311;-83
2022/05/25 14:27:26;;;;;;;1.55;1.10;;;24.30;75.00;;;;;;7387241;19;20391;-83
2022/05/25 14:29:52;;;;;;;1.40;1.00;;;24.30;72.30;;;;;;7291381;19;2020026;-87
2022/05/25 14:32:33;;;;;;;4.77;1.17;;;24.40;74.80;;;;;;7390206;19;20363;-84
2022/05/25 14:35:01;;;;;;;2.33;1.00;;;24.10;73.90;;;;;;7390657;19;20380;-82
2022/05/25 14:37:28;;;;;;;1.45;1.02;;;24.40;76.10;;;;;;7392965;19;20340;-89